Time;durP1;ratioP1;P1;durP2;ratioP2;P2;SDS_P1;SDS_P2;PMS_P1;PMS_P2;Temp;Humidity;BMP_temperature;BMP_pressure;BME280_temperature;BME280_humidity;BME280_pressure;Samples;Min_cycle;Max_cycle;Signal;HPM_P1;HPM_P2
2022/12/07 00:02:18;;;;;;;10.73;2.88;;;;;;;;;;5013989;28;20022;-82
2022/12/07 00:04:44;;;;;;;10.43;2.10;;;;;;;;;;5024180;28;20100;-82
2022/12/07 00:07:10;;;;;;;10.52;2.33;;;;;;;;;;5014036;28;20029;-82
2022/12/07 00:09:38;;;;;;;11.50;2.83;;;;;;;;;;5020808;28;20488;-82
2022/12/07 00:12:05;;;;;;;8.68;2.00;;;;;;;;;;5016983;28;20044;-82
2022/12/07 00:14:31;;;;;;;15.07;2.70;;;;;;;;;;5033030;28;20029;-82
2022/12/07 00:16:57;;;;;;;10.13;2.72;;;;;;;;;;5032745;28;20300;-82
2022/12/07 00:19:23;;;;;;;13.30;3.25;;;;;;;;;;5019195;28;20348;-82
2022/12/07 00:21:49;;;;;;;16.08;3.63;;;;;;;;;;5011336;28;20098;-81
2022/12/07 00:24:16;;;;;;;11.43;2.08;;;;;;;;;;5014928;28;20038;-81
2022/12/07 00:26:43;;;;;;;11.75;2.65;;;;;;;;;;5012741;28;20028;-82
2022/12/07 00:29:16;;;;;;;10.55;2.88;;;;;;;;;;5023600;28;20026;-81
2022/12/07 00:31:42;;;;;;;20.20;2.75;;;;;;;;;;5016741;28;20049;-82
2022/12/07 00:34:12;;;;;;;19.17;2.80;;;;;;;;;;5011324;28;20068;-82
2022/12/07 00:36:38;;;;;;;10.50;2.17;;;;;;;;;;5015789;28;20049;-82
2022/12/07 00:39:04;;;;;;;16.65;2.80;;;;;;;;;;5012547;28;20037;-82
2022/12/07 00:41:30;;;;;;;17.58;2.75;;;;;;;;;;5019485;28;20025;-81
2022/12/07 00:43:57;;;;;;;10.35;2.80;;;;;;;;;;5019141;28;20029;-81
2022/12/07 00:46:23;;;;;;;14.35;2.60;;;;;;;;;;5016582;28;20088;-82
2022/12/07 00:48:49;;;;;;;15.52;2.55;;;;;;;;;;5009773;28;20050;-82
2022/12/07 00:51:16;;;;;;;11.52;3.35;;;;;;;;;;5018745;28;20104;-82
2022/12/07 00:53:43;;;;;;;8.43;2.03;;;;;;;;;;5015164;28;20125;-82
2022/12/07 00:56:10;;;;;;;9.07;2.78;;;;;;;;;;5027331;28;20033;-82
2022/12/07 00:58:36;;;;;;;10.65;2.42;;;;;;;;;;5013325;28;20091;-81
2022/12/07 01:01:03;;;;;;;11.00;2.53;;;;;;;;;;5021513;28;20075;-82
2022/12/07 01:03:30;;;;;;;10.70;2.25;;;;;;;;;;5023647;28;20022;-82
2022/12/07 01:05:57;;;;;;;13.15;2.90;;;;;;;;;;5027422;28;20068;-82
2022/12/07 01:08:24;;;;;;;11.77;2.25;;;;;;;;;;5020600;28;20516;-82
2022/12/07 01:10:50;;;;;;;14.70;2.90;;;;;;;;;;5023671;28;20036;-81
2022/12/07 01:13:17;;;;;;;16.50;2.40;;;;;;;;;;5015995;28;20604;-82
2022/12/07 01:15:44;;;;;;;9.40;2.30;;;;;;;;;;5023818;28;20041;-82
2022/12/07 01:18:10;;;;;;;14.68;3.13;;;;;;;;;;5033387;28;20021;-82
2022/12/07 01:20:37;;;;;;;10.13;2.30;;;;;;;;;;5031851;28;20092;-82
2022/12/07 01:23:03;;;;;;;14.70;2.53;;;;;;;;;;5013445;28;20052;-82
2022/12/07 01:25:30;;;;;;;15.07;3.03;;;;;;;;;;5020721;28;20029;-82
2022/12/07 01:27:56;;;;;;;14.80;3.13;;;;;;;;;;5014221;28;20088;-83
2022/12/07 01:30:22;;;;;;;16.10;2.90;;;;;;;;;;5018512;28;20014;-82
2022/12/07 01:32:48;;;;;;;15.98;2.78;;;;;;;;;;5022294;28;20022;-82
2022/12/07 01:35:14;;;;;;;18.42;3.47;;;;;;;;;;5021774;28;20025;-83
2022/12/07 01:37:41;;;;;;;17.42;3.40;;;;;;;;;;5014088;28;20511;-82
2022/12/07 01:40:08;;;;;;;28.60;4.07;;;;;;;;;;5024426;28;20083;-82
2022/12/07 01:42:34;;;;;;;35.60;3.60;;;;;;;;;;5014877;28;20025;-82
2022/12/07 01:45:19;;;;;;;14.40;2.97;;;;;;;;;;5022618;28;20425;-82
2022/12/07 01:47:56;;;;;;;12.32;3.00;;;;;;;;;;5021376;28;20037;-82
2022/12/07 01:50:25;;;;;;;20.90;3.28;;;;;;;;;;5025907;28;20029;-82
2022/12/07 01:52:52;;;;;;;19.63;3.38;;;;;;;;;;5025741;28;20079;-82
2022/12/07 01:55:18;;;;;;;15.45;3.03;;;;;;;;;;5019690;28;20517;-82
2022/12/07 01:57:48;;;;;;;7.00;2.22;;;;;;;;;;5026042;28;20036;-82
2022/12/07 02:00:14;;;;;;;15.38;2.90;;;;;;;;;;5023647;28;20108;-82
2022/12/07 02:02:49;;;;;;;13.30;2.90;;;;;;;;;;5022310;28;20480;-83
2022/12/07 02:05:16;;;;;;;16.45;3.15;;;;;;;;;;5019044;28;20025;-82
2022/12/07 02:07:42;;;;;;;16.17;3.22;;;;;;;;;;5012951;28;20034;-82
2022/12/07 02:10:28;;;;;;;20.10;3.65;;;;;;;;;;5022167;28;20104;-82
2022/12/07 02:13:03;;;;;;;20.27;3.03;;;;;;;;;;5032182;28;20038;-82
2022/12/07 02:15:38;;;;;;;22.38;3.28;;;;;;;;;;5029325;28;20084;-82
2022/12/07 02:18:12;;;;;;;23.25;3.33;;;;;;;;;;5024122;28;20300;-82
2022/12/07 02:20:56;;;;;;;21.60;3.55;;;;;;;;;;5019686;28;20479;-81
2022/12/07 02:23:40;;;;;;;22.60;3.30;;;;;;;;;;5022751;28;20581;-82
2022/12/07 02:26:06;;;;;;;23.05;3.38;;;;;;;;;;5026769;28;20021;-82
2022/12/07 02:28:56;;;;;;;16.23;3.17;;;;;;;;;;5028307;28;20125;-82
2022/12/07 02:31:25;;;;;;;19.67;3.20;;;;;;;;;;5001314;28;20048;-82
2022/12/07 02:34:05;;;;;;;23.23;3.60;;;;;;;;;;5010495;28;20041;-82
2022/12/07 02:36:34;;;;;;;17.52;3.03;;;;;;;;;;5019045;28;20500;-82
2022/12/07 02:39:00;;;;;;;13.82;2.85;;;;;;;;;;5031540;28;20464;-82
2022/12/07 02:41:41;;;;;;;13.63;3.50;;;;;;;;;;5010959;28;20021;-83
2022/12/07 02:44:09;;;;;;;20.93;3.37;;;;;;;;;;5018623;28;20026;-82
2022/12/07 02:46:46;;;;;;;20.67;3.40;;;;;;;;;;5017083;28;20187;-81
2022/12/07 02:49:13;;;;;;;17.80;2.50;;;;;;;;;;5013068;28;20121;-81
2022/12/07 02:51:40;;;;;;;12.15;2.22;;;;;;;;;;5012516;28;20181;-82
2022/12/07 02:54:17;;;;;;;19.83;3.63;;;;;;;;;;5015921;28;20026;-82
2022/12/07 02:56:57;;;;;;;24.58;4.18;;;;;;;;;;5015337;28;20053;-81
2022/12/07 02:59:24;;;;;;;16.40;2.58;;;;;;;;;;5009417;28;20029;-82
2022/12/07 03:01:50;;;;;;;21.70;3.65;;;;;;;;;;5014686;28;20120;-80
2022/12/07 03:04:27;;;;;;;16.45;2.95;;;;;;;;;;5008530;28;20068;-80
2022/12/07 03:07:00;;;;;;;14.25;2.42;;;;;;;;;;5017741;28;20033;-82
2022/12/07 03:09:31;;;;;;;17.58;2.85;;;;;;;;;;5008229;28;20026;-82
2022/12/07 03:12:24;;;;;;;11.38;3.08;;;;;;;;;;5017635;28;20033;-82
2022/12/07 03:14:56;;;;;;;17.45;3.17;;;;;;;;;;4989785;28;20030;-82
2022/12/07 03:17:26;;;;;;;13.35;3.13;;;;;;;;;;5016069;28;20025;-81
2022/12/07 03:19:54;;;;;;;13.05;2.88;;;;;;;;;;5019204;28;20033;-81
2022/12/07 03:22:22;;;;;;;16.92;3.70;;;;;;;;;;5018098;28;20045;-81
2022/12/07 03:24:55;;;;;;;13.60;3.92;;;;;;;;;;5018667;28;20029;-82
2022/12/07 03:27:25;;;;;;;6.85;2.33;;;;;;;;;;5020438;28;20041;-81
2022/12/07 03:30:07;;;;;;;9.30;2.67;;;;;;;;;;5007957;28;20030;-81
2022/12/07 03:32:39;;;;;;;16.98;2.78;;;;;;;;;;5028440;28;20556;-82
2022/12/07 03:35:11;;;;;;;16.17;3.05;;;;;;;;;;5008625;28;20030;-82
2022/12/07 03:37:41;;;;;;;17.90;2.80;;;;;;;;;;5020189;28;20022;-81
2022/12/07 03:40:17;;;;;;;15.70;2.70;;;;;;;;;;5018660;28;20148;-82
2022/12/07 03:42:43;;;;;;;13.45;2.20;;;;;;;;;;5021986;28;20032;-82
2022/12/07 03:45:11;;;;;;;13.38;2.28;;;;;;;;;;5020711;28;20029;-82
2022/12/07 03:48:00;;;;;;;18.50;2.33;;;;;;;;;;5030481;28;20033;-81
2022/12/07 03:50:29;;;;;;;9.27;2.08;;;;;;;;;;5016968;28;20033;-82
2022/12/07 03:53:13;;;;;;;13.07;2.42;;;;;;;;;;5017655;28;20084;-82
2022/12/07 03:55:42;;;;;;;12.05;2.45;;;;;;;;;;5019132;28;20029;-82
2022/12/07 03:58:11;;;;;;;14.13;2.25;;;;;;;;;;5022457;28;20072;-82
2022/12/07 04:00:38;;;;;;;12.35;2.65;;;;;;;;;;5022819;28;20508;-82
2022/12/07 04:03:04;;;;;;;14.02;2.50;;;;;;;;;;5016120;28;20029;-82
2022/12/07 04:05:30;;;;;;;18.15;2.90;;;;;;;;;;5016223;28;20079;-82
2022/12/07 04:07:57;;;;;;;11.00;2.47;;;;;;;;;;5010226;28;20050;-82
2022/12/07 04:10:23;;;;;;;16.70;3.10;;;;;;;;;;5022812;28;20033;-82
2022/12/07 04:12:49;;;;;;;20.95;3.80;;;;;;;;;;5011276;28;20163;-81
2022/12/07 04:15:15;;;;;;;14.18;2.63;;;;;;;;;;5008744;28;20021;-81
2022/12/07 04:17:42;;;;;;;18.35;3.10;;;;;;;;;;5025129;28;20037;-81
2022/12/07 04:20:08;;;;;;;10.10;2.20;;;;;;;;;;5017404;28;20080;-81
2022/12/07 04:22:34;;;;;;;14.88;2.53;;;;;;;;;;5027548;28;20045;-81
2022/12/07 04:25:00;;;;;;;14.20;2.67;;;;;;;;;;5020736;28;20476;-82
2022/12/07 04:27:27;;;;;;;20.98;3.78;;;;;;;;;;5021689;28;20282;-82
2022/12/07 04:29:54;;;;;;;18.17;3.92;;;;;;;;;;5020564;28;20464;-82
2022/12/07 04:32:21;;;;;;;20.05;3.28;;;;;;;;;;5019672;28;20025;-82
2022/12/07 04:34:47;;;;;;;9.82;3.10;;;;;;;;;;5030154;28;20350;-83
2022/12/07 04:37:13;;;;;;;18.52;3.22;;;;;;;;;;5021387;28;20022;-82
2022/12/07 04:39:40;;;;;;;40.05;3.65;;;;;;;;;;5032075;28;20484;-82
2022/12/07 04:42:06;;;;;;;16.92;2.53;;;;;;;;;;5022814;28;20385;-82
2022/12/07 04:44:32;;;;;;;19.10;3.30;;;;;;;;;;5025854;28;20104;-81
2022/12/07 04:47:02;;;;;;;16.80;3.33;;;;;;;;;;5019751;28;20030;-82
2022/12/07 04:49:28;;;;;;;13.15;2.38;;;;;;;;;;5016930;28;20040;-82
2022/12/07 04:51:55;;;;;;;15.13;3.30;;;;;;;;;;5010810;28;20078;-82
2022/12/07 04:54:21;;;;;;;13.93;3.55;;;;;;;;;;5020338;28;20036;-82
2022/12/07 04:56:48;;;;;;;9.95;2.80;;;;;;;;;;5019072;28;20626;-82
2022/12/07 04:59:14;;;;;;;16.70;3.08;;;;;;;;;;5013272;28;20136;-82
2022/12/07 05:01:41;;;;;;;12.20;3.08;;;;;;;;;;5033606;28;20026;-82
2022/12/07 05:04:10;;;;;;;13.07;3.40;;;;;;;;;;5016324;28;20215;-82
2022/12/07 05:06:39;;;;;;;14.45;3.17;;;;;;;;;;5011403;28;20021;-82
2022/12/07 05:09:06;;;;;;;16.88;3.13;;;;;;;;;;5015145;28;20832;-82
2022/12/07 05:11:38;;;;;;;15.73;3.10;;;;;;;;;;5017563;28;20056;-82
2022/12/07 05:14:06;;;;;;;19.60;3.28;;;;;;;;;;5017282;28;20489;-81
2022/12/07 05:16:33;;;;;;;14.75;3.17;;;;;;;;;;5007921;28;20041;-82
2022/12/07 05:19:02;;;;;;;23.50;4.25;;;;;;;;;;5017309;28;20485;-82
2022/12/07 05:21:29;;;;;;;15.43;2.55;;;;;;;;;;5007857;28;20066;-82
2022/12/07 05:23:55;;;;;;;20.23;3.45;;;;;;;;;;5013658;28;20026;-82
2022/12/07 05:26:21;;;;;;;16.95;3.22;;;;;;;;;;5012985;28;20038;-82
2022/12/07 05:28:54;;;;;;;23.40;2.78;;;;;;;;;;5017423;28;20124;-82
2022/12/07 05:31:21;;;;;;;21.10;3.97;;;;;;;;;;5009777;28;20022;-82
2022/12/07 05:33:47;;;;;;;18.90;3.15;;;;;;;;;;5016157;28;20083;-82
2022/12/07 05:36:13;;;;;;;17.08;3.45;;;;;;;;;;5015712;28;20373;-83
2022/12/07 05:38:40;;;;;;;17.40;3.95;;;;;;;;;;5007112;28;20817;-82
2022/12/07 05:41:07;;;;;;;19.25;3.17;;;;;;;;;;5015665;28;20069;-83
2022/12/07 05:43:34;;;;;;;10.80;2.97;;;;;;;;;;5007440;28;20037;-82
2022/12/07 05:46:00;;;;;;;15.55;3.40;;;;;;;;;;5016907;28;20075;-82
2022/12/07 05:48:27;;;;;;;14.75;3.55;;;;;;;;;;5004277;28;20041;-82
2022/12/07 05:50:53;;;;;;;17.05;2.75;;;;;;;;;;5007765;28;20032;-82
2022/12/07 05:53:19;;;;;;;16.92;2.72;;;;;;;;;;5012459;28;20026;-82
2022/12/07 05:55:45;;;;;;;20.05;2.72;;;;;;;;;;5028647;28;20022;-82
2022/12/07 06:00:56;;;;;;;26.27;4.35;;;;;;;;;;5006484;28;20057;-82
2022/12/07 06:03:23;;;;;;;17.55;3.25;;;;;;;;;;5017024;28;20061;-82
2022/12/07 06:05:49;;;;;;;13.88;3.38;;;;;;;;;;5020901;28;20125;-82
2022/12/07 06:08:16;;;;;;;12.30;3.25;;;;;;;;;;5006615;28;20069;-82
2022/12/07 06:10:45;;;;;;;18.65;3.95;;;;;;;;;;5013002;28;20025;-82
2022/12/07 06:13:11;;;;;;;21.08;4.40;;;;;;;;;;5017979;28;20036;-81
2022/12/07 06:15:38;;;;;;;15.18;3.17;;;;;;;;;;5014855;28;20021;-82
2022/12/07 06:18:04;;;;;;;17.80;2.90;;;;;;;;;;5016727;28;20667;-82
2022/12/07 06:20:30;;;;;;;16.27;3.00;;;;;;;;;;5012011;28;20479;-82
2022/12/07 06:22:57;;;;;;;14.75;3.50;;;;;;;;;;5023968;28;20123;-83
2022/12/07 06:25:23;;;;;;;16.88;3.35;;;;;;;;;;5011496;28;20029;-82
2022/12/07 06:27:49;;;;;;;25.23;4.65;;;;;;;;;;5024391;28;20068;-83
2022/12/07 06:30:15;;;;;;;16.17;3.33;;;;;;;;;;5017795;28;20461;-83
2022/12/07 06:32:42;;;;;;;16.63;3.92;;;;;;;;;;5013606;28;21759;-83
2022/12/07 06:35:08;;;;;;;17.10;3.30;;;;;;;;;;5018117;28;20022;-83
2022/12/07 06:37:34;;;;;;;16.85;3.20;;;;;;;;;;5005772;28;20030;-83
2022/12/07 06:40:01;;;;;;;22.55;3.05;;;;;;;;;;5015792;28;20052;-82
2022/12/07 06:42:27;;;;;;;17.30;3.83;;;;;;;;;;5017618;28;20037;-82
2022/12/07 06:44:53;;;;;;;14.60;2.83;;;;;;;;;;5015894;28;20021;-81
2022/12/07 06:47:20;;;;;;;17.73;3.72;;;;;;;;;;5014805;28;20917;-81
2022/12/07 06:49:46;;;;;;;13.85;2.80;;;;;;;;;;5011455;28;20032;-82
2022/12/07 06:52:12;;;;;;;21.17;4.00;;;;;;;;;;5017883;28;20102;-82
2022/12/07 06:54:38;;;;;;;26.23;3.67;;;;;;;;;;5011857;28;20068;-82
2022/12/07 06:57:04;;;;;;;22.42;3.33;;;;;;;;;;5026708;28;20057;-82
2022/12/07 06:59:31;;;;;;;16.02;3.60;;;;;;;;;;5017763;28;20065;-81
2022/12/07 07:01:57;;;;;;;18.48;3.28;;;;;;;;;;5025092;28;20022;-82
2022/12/07 07:04:24;;;;;;;17.02;3.15;;;;;;;;;;5008768;28;20723;-81
2022/12/07 07:06:50;;;;;;;63.05;7.38;;;;;;;;;;5013493;28;20044;-83
2022/12/07 07:09:17;;;;;;;48.28;5.93;;;;;;;;;;5014218;28;20569;-82
2022/12/07 07:11:43;;;;;;;27.88;4.03;;;;;;;;;;5017107;28;20767;-83
2022/12/07 07:14:09;;;;;;;20.70;3.15;;;;;;;;;;5012948;28;20091;-82
2022/12/07 07:16:35;;;;;;;16.98;3.17;;;;;;;;;;5017137;28;20029;-82
2022/12/07 07:19:02;;;;;;;28.85;3.78;;;;;;;;;;5006692;28;20030;-83
2022/12/07 07:21:28;;;;;;;12.45;3.38;;;;;;;;;;5013429;28;20049;-83
2022/12/07 07:24:02;;;;;;;17.45;3.50;;;;;;;;;;5012250;28;20419;-82
2022/12/07 07:26:28;;;;;;;26.25;4.68;;;;;;;;;;5011445;28;20024;-83
2022/12/07 07:28:54;;;;;;;23.88;3.78;;;;;;;;;;5003272;28;20037;-83
2022/12/07 07:31:20;;;;;;;20.60;3.63;;;;;;;;;;5010867;28;20045;-83
2022/12/07 07:33:47;;;;;;;18.92;3.25;;;;;;;;;;5012331;28;20412;-84
2022/12/07 07:36:13;;;;;;;20.23;3.53;;;;;;;;;;5012842;28;20053;-83
2022/12/07 07:38:39;;;;;;;21.45;3.15;;;;;;;;;;5015550;28;20048;-84
2022/12/07 07:41:05;;;;;;;17.45;3.30;;;;;;;;;;5021095;28;20044;-84
2022/12/07 07:43:32;;;;;;;16.35;3.50;;;;;;;;;;5010132;28;20399;-85
2022/12/07 07:45:59;;;;;;;18.20;3.10;;;;;;;;;;5013126;28;20025;-84
2022/12/07 07:48:25;;;;;;;11.60;3.08;;;;;;;;;;5011134;28;20119;-84
2022/12/07 07:50:51;;;;;;;14.32;2.97;;;;;;;;;;5015220;28;20071;-84
2022/12/07 07:53:18;;;;;;;15.18;3.50;;;;;;;;;;5004325;28;20084;-84
2022/12/07 07:55:51;;;;;;;20.52;3.78;;;;;;;;;;5013114;28;20112;-83
2022/12/07 07:58:18;;;;;;;11.93;2.55;;;;;;;;;;5013305;28;20028;-84
2022/12/07 08:00:44;;;;;;;10.10;3.35;;;;;;;;;;5014911;28;20562;-83
2022/12/07 08:03:10;;;;;;;10.25;2.65;;;;;;;;;;5019052;28;20083;-84
2022/12/07 08:05:37;;;;;;;12.85;3.03;;;;;;;;;;5013526;28;20049;-84
2022/12/07 08:08:04;;;;;;;19.80;3.83;;;;;;;;;;5028071;28;20123;-84
2022/12/07 08:10:31;;;;;;;15.38;2.75;;;;;;;;;;5009891;28;20050;-84
2022/12/07 08:13:10;;;;;;;16.27;3.50;;;;;;;;;;5020290;28;20017;-84
2022/12/07 08:15:37;;;;;;;14.65;3.10;;;;;;;;;;5015241;28;20025;-84
2022/12/07 08:18:03;;;;;;;8.95;2.72;;;;;;;;;;5014651;28;20053;-84
2022/12/07 08:20:33;;;;;;;18.55;3.13;;;;;;;;;;5008584;28;20025;-84
2022/12/07 08:23:00;;;;;;;13.93;3.65;;;;;;;;;;5014645;28;20287;-85
2022/12/07 08:25:26;;;;;;;11.30;2.72;;;;;;;;;;5012864;28;20475;-85
2022/12/07 08:27:52;;;;;;;16.23;3.33;;;;;;;;;;5007373;28;20049;-85
2022/12/07 08:30:19;;;;;;;13.02;3.58;;;;;;;;;;5026383;28;20220;-85
2022/12/07 08:32:45;;;;;;;15.40;3.10;;;;;;;;;;5020449;28;20070;-84
2022/12/07 08:35:12;;;;;;;12.23;2.63;;;;;;;;;;5019591;28;20113;-85
2022/12/07 08:37:39;;;;;;;18.77;3.05;;;;;;;;;;5021130;28;20036;-85
2022/12/07 08:40:05;;;;;;;15.73;3.75;;;;;;;;;;5012843;28;20032;-85
2022/12/07 08:42:37;;;;;;;14.55;3.15;;;;;;;;;;5022154;28;20061;-86
2022/12/07 08:45:07;;;;;;;24.85;4.72;;;;;;;;;;5014888;28;20482;-85
2022/12/07 08:47:34;;;;;;;28.13;5.38;;;;;;;;;;5012927;28;20041;-85
2022/12/07 08:50:03;;;;;;;22.42;4.68;;;;;;;;;;5015085;28;20102;-85
2022/12/07 08:52:30;;;;;;;15.43;4.65;;;;;;;;;;5017523;28;20116;-84
2022/12/07 08:54:56;;;;;;;13.50;3.60;;;;;;;;;;5015671;28;20116;-85
2022/12/07 08:57:22;;;;;;;22.85;4.80;;;;;;;;;;5015105;28;20504;-85
2022/12/07 08:59:49;;;;;;;19.02;4.93;;;;;;;;;;5010568;28;20112;-85
2022/12/07 09:02:15;;;;;;;15.27;4.13;;;;;;;;;;5027064;28;20264;-85
2022/12/07 09:04:41;;;;;;;18.33;3.90;;;;;;;;;;5010445;28;20049;-85
2022/12/07 09:07:07;;;;;;;18.40;3.47;;;;;;;;;;5006877;28;20022;-85
2022/12/07 09:09:33;;;;;;;20.10;3.80;;;;;;;;;;5014575;28;20017;-84
2022/12/07 09:12:00;;;;;;;17.95;4.35;;;;;;;;;;5024274;28;20022;-86
2022/12/07 09:14:26;;;;;;;38.63;5.15;;;;;;;;;;5015059;28;20026;-84
2022/12/07 09:16:54;;;;;;;29.38;5.90;;;;;;;;;;5024288;28;20062;-85
2022/12/07 09:19:20;;;;;;;20.65;4.90;;;;;;;;;;5016795;28;20018;-85
2022/12/07 09:21:46;;;;;;;11.45;3.55;;;;;;;;;;5021266;28;20369;-85
2022/12/07 09:24:15;;;;;;;20.15;4.47;;;;;;;;;;5018529;28;20095;-85
2022/12/07 09:26:42;;;;;;;14.00;3.72;;;;;;;;;;5007553;28;20155;-85
2022/12/07 09:29:08;;;;;;;16.23;3.38;;;;;;;;;;5015181;28;20309;-84
2022/12/07 09:31:36;;;;;;;19.40;3.50;;;;;;;;;;5015477;28;20057;-84
2022/12/07 09:34:02;;;;;;;21.65;3.70;;;;;;;;;;5008063;28;20396;-84
2022/12/07 09:36:29;;;;;;;18.08;3.25;;;;;;;;;;5014233;28;20104;-84
2022/12/07 09:38:55;;;;;;;11.50;3.22;;;;;;;;;;5012972;28;20113;-84
2022/12/07 09:41:22;;;;;;;18.65;4.20;;;;;;;;;;5021217;28;20022;-85
2022/12/07 09:43:48;;;;;;;15.20;4.00;;;;;;;;;;5021586;28;20033;-84
2022/12/07 09:46:16;;;;;;;19.40;3.60;;;;;;;;;;5021646;28;20651;-84
2022/12/07 09:48:43;;;;;;;27.80;4.20;;;;;;;;;;5018045;28;20034;-84
2022/12/07 09:51:15;;;;;;;20.30;3.65;;;;;;;;;;5012818;28;20021;-84
2022/12/07 09:53:42;;;;;;;18.10;4.40;;;;;;;;;;5029966;28;20049;-85
2022/12/07 09:56:12;;;;;;;25.25;4.97;;;;;;;;;;5020274;28;20075;-84
2022/12/07 09:58:38;;;;;;;18.92;4.43;;;;;;;;;;5017838;28;20408;-84
2022/12/07 10:01:08;;;;;;;24.95;4.75;;;;;;;;;;5010532;28;20360;-84
2022/12/07 10:03:35;;;;;;;22.80;5.65;;;;;;;;;;5010716;28;20079;-84
2022/12/07 10:06:02;;;;;;;24.77;5.22;;;;;;;;;;5018635;28;20621;-84
2022/12/07 10:08:28;;;;;;;27.05;5.18;;;;;;;;;;5008166;28;20120;-84
2022/12/07 10:10:56;;;;;;;21.90;4.80;;;;;;;;;;5018060;28;20053;-85
2022/12/07 10:13:43;;;;;;;34.65;6.50;;;;;;;;;;5028964;28;20021;-84
2022/12/07 10:16:29;;;;;;;30.27;6.28;;;;;;;;;;5022385;28;20040;-84
2022/12/07 10:18:56;;;;;;;22.05;6.53;;;;;;;;;;5017606;28;20499;-84
2022/12/07 10:21:27;;;;;;;25.90;6.47;;;;;;;;;;5025679;28;20172;-84
2022/12/07 10:24:02;;;;;;;29.70;6.18;;;;;;;;;;5012753;28;20133;-85
2022/12/07 10:26:47;;;;;;;33.38;6.55;;;;;;;;;;5007449;28;20044;-90
2022/12/07 10:29:16;;;;;;;38.15;6.65;;;;;;;;;;5027387;28;20605;-89
2022/12/07 10:31:43;;;;;;;34.38;5.35;;;;;;;;;;5017600;28;20014;-87
2022/12/07 10:34:22;;;;;;;35.65;7.55;;;;;;;;;;5019969;28;20101;-88
2022/12/07 10:36:48;;;;;;;56.20;7.65;;;;;;;;;;5020355;28;20018;-92
2022/12/07 10:39:21;;;;;;;29.10;6.50;;;;;;;;;;5015563;28;20063;-91
2022/12/07 10:42:01;;;;;;;30.52;6.00;;;;;;;;;;5034653;28;20075;-93
2022/12/07 10:44:34;;;;;;;27.75;7.05;;;;;;;;;;5021123;28;20026;-94
2022/12/07 10:47:16;;;;;;;42.05;7.07;;;;;;;;;;5023562;28;20092;-93
2022/12/07 10:49:50;;;;;;;28.85;5.47;;;;;;;;;;5022366;28;20121;-91
2022/12/07 10:52:23;;;;;;;22.90;5.97;;;;;;;;;;5034689;28;20033;-90
2022/12/07 10:54:55;;;;;;;34.38;5.80;;;;;;;;;;5033125;28;20541;-92
2022/12/07 10:57:30;;;;;;;71.00;11.30;;;;;;;;;;5021576;28;20137;-93
2022/12/07 11:00:01;;;;;;;55.13;7.82;;;;;;;;;;5022452;28;20041;-92
2022/12/07 11:02:38;;;;;;;35.58;6.60;;;;;;;;;;5023689;28;20057;-92
2022/12/07 11:05:16;;;;;;;31.70;5.57;;;;;;;;;;5021766;28;20060;-90
2022/12/07 11:08:05;;;;;;;29.67;6.80;;;;;;;;;;5023841;28;20551;-92
2022/12/07 11:10:39;;;;;;;38.58;7.65;;;;;;;;;;5023179;28;20029;-92
2022/12/07 11:13:08;;;;;;;32.38;6.20;;;;;;;;;;5017739;28;20388;-94
2022/12/07 11:16:01;;;;;;;22.70;5.75;;;;;;;;;;5023565;28;20044;-92
2022/12/07 11:18:30;;;;;;;24.17;5.90;;;;;;;;;;5018839;28;20042;-92
2022/12/07 11:21:12;;;;;;;24.20;5.43;;;;;;;;;;5023851;28;20132;-94
2022/12/07 11:23:48;;;;;;;48.00;7.25;;;;;;;;;;5038271;28;20124;-92
2022/12/07 11:26:20;;;;;;;31.13;6.10;;;;;;;;;;5019699;28;20034;-92
2022/12/07 11:28:56;;;;;;;34.85;6.43;;;;;;;;;;5020214;28;20057;-92
2022/12/07 11:31:31;;;;;;;32.58;7.63;;;;;;;;;;5020493;28;20392;-93
2022/12/07 11:34:25;;;;;;;24.42;5.38;;;;;;;;;;5035457;28;20111;-92
2022/12/07 11:36:55;;;;;;;24.50;6.38;;;;;;;;;;5019532;28;20074;-93
2022/12/07 11:39:36;;;;;;;33.00;6.90;;;;;;;;;;5017933;28;20053;-90
2022/12/07 11:42:07;;;;;;;26.63;6.60;;;;;;;;;;5021364;28;20041;-92
2022/12/07 11:44:35;;;;;;;19.17;5.00;;;;;;;;;;5021818;28;20052;-92
2022/12/07 11:47:04;;;;;;;19.20;5.05;;;;;;;;;;5038399;28;20276;-93
2022/12/07 11:49:34;;;;;;;13.65;4.55;;;;;;;;;;5020906;28;20120;-92
2022/12/07 11:52:03;;;;;;;18.05;5.07;;;;;;;;;;5037199;28;20045;-93
2022/12/07 11:54:32;;;;;;;14.93;3.83;;;;;;;;;;5020549;28;20017;-92
2022/12/07 11:57:03;;;;;;;13.35;4.00;;;;;;;;;;5034147;28;20036;-92
2022/12/07 11:59:37;;;;;;;13.73;3.95;;;;;;;;;;5020666;28;20022;-92
2022/12/07 12:02:12;;;;;;;13.05;3.10;;;;;;;;;;5019969;28;20026;-91
2022/12/07 12:04:42;;;;;;;15.27;3.67;;;;;;;;;;5017979;28;20022;-96
2022/12/07 12:07:08;;;;;;;13.73;4.20;;;;;;;;;;5035626;28;20030;-92
2022/12/07 12:09:57;;;;;;;16.85;6.20;;;;;;;;;;5021846;28;20478;-92
2022/12/07 12:12:27;;;;;;;13.07;5.50;;;;;;;;;;4999860;28;20040;-92
2022/12/07 12:14:56;;;;;;;17.63;6.22;;;;;;;;;;5015095;28;20144;-94
2022/12/07 12:17:41;;;;;;;12.43;5.00;;;;;;;;;;5039881;28;20395;-93
2022/12/07 12:20:16;;;;;;;7.90;4.32;;;;;;;;;;5017033;28;20128;-93
2022/12/07 12:22:44;;;;;;;12.35;7.47;;;;;;;;;;5020694;28;20439;-94
2022/12/07 12:25:20;;;;;;;14.25;8.55;;;;;;;;;;5021201;28;20028;-92
2022/12/07 12:27:47;;;;;;;17.38;9.40;;;;;;;;;;5022943;28;20030;-92
2022/12/07 12:30:32;;;;;;;19.83;11.27;;;;;;;;;;5036028;28;20018;-91
2022/12/07 12:33:04;;;;;;;28.20;9.07;;;;;;;;;;5014260;28;20026;-92
2022/12/07 12:35:35;;;;;;;12.40;8.15;;;;;;;;;;5022344;28;20018;-91
2022/12/07 12:38:20;;;;;;;18.00;8.57;;;;;;;;;;5018726;28;20065;-92
2022/12/07 12:40:46;;;;;;;15.77;8.20;;;;;;;;;;5021483;28;20126;-91
2022/12/07 12:43:31;;;;;;;22.77;9.25;;;;;;;;;;5035573;28;20034;-92
2022/12/07 12:46:16;;;;;;;13.48;7.10;;;;;;;;;;5018914;28;20056;-92
2022/12/07 12:48:42;;;;;;;15.38;5.78;;;;;;;;;;5018157;28;20038;-92
2022/12/07 12:51:27;;;;;;;9.88;5.43;;;;;;;;;;5019973;28;20559;-91
2022/12/07 12:54:03;;;;;;;14.38;4.70;;;;;;;;;;5019851;28;20108;-93
2022/12/07 12:56:29;;;;;;;5.90;3.13;;;;;;;;;;5013842;28;20531;-92
2022/12/07 12:59:14;;;;;;;13.38;3.85;;;;;;;;;;5025119;28;20467;-95
2022/12/07 13:01:42;;;;;;;12.85;3.97;;;;;;;;;;5023957;28;20635;-93
2022/12/07 13:04:19;;;;;;;12.13;3.00;;;;;;;;;;5017153;28;20025;-92
2022/12/07 13:06:46;;;;;;;13.82;2.85;;;;;;;;;;5016955;28;20190;-92
2022/12/07 13:09:24;;;;;;;12.00;2.70;;;;;;;;;;5035873;28;20057;-92
2022/12/07 13:11:55;;;;;;;10.77;3.05;;;;;;;;;;5023315;28;20025;-93
2022/12/07 13:14:40;;;;;;;12.25;2.95;;;;;;;;;;5024000;28;20337;-93
2022/12/07 13:17:32;;;;;;;13.60;2.47;;;;;;;;;;5021897;28;20419;-93
2022/12/07 13:19:59;;;;;;;14.25;3.25;;;;;;;;;;5022654;28;20017;-92
2022/12/07 13:22:32;;;;;;;13.82;4.00;;;;;;;;;;5021819;28;20045;-91
2022/12/07 13:24:58;;;;;;;16.70;6.95;;;;;;;;;;5023095;28;20053;-93
2022/12/07 13:27:28;;;;;;;17.98;7.07;;;;;;;;;;5018664;28;20492;-92
2022/12/07 13:29:56;;;;;;;15.55;6.60;;;;;;;;;;5021103;28;20025;-95
2022/12/07 13:32:29;;;;;;;12.48;7.15;;;;;;;;;;5023066;28;20108;-91
2022/12/07 13:34:56;;;;;;;13.07;6.68;;;;;;;;;;5020696;28;20022;-92
2022/12/07 13:37:25;;;;;;;13.93;5.93;;;;;;;;;;5019331;28;20026;-93
2022/12/07 13:39:53;;;;;;;15.88;4.22;;;;;;;;;;5022960;28;20021;-92
2022/12/07 13:42:26;;;;;;;10.63;4.57;;;;;;;;;;5018074;28;20089;-91
2022/12/07 13:44:53;;;;;;;17.95;4.70;;;;;;;;;;5021505;28;20026;-91
2022/12/07 13:47:19;;;;;;;16.60;4.28;;;;;;;;;;5019581;28;20026;-91
2022/12/07 13:49:50;;;;;;;15.15;3.90;;;;;;;;;;5021601;28;20045;-92
2022/12/07 13:52:19;;;;;;;14.77;3.40;;;;;;;;;;5020185;28;20025;-92
2022/12/07 13:54:50;;;;;;;15.15;3.92;;;;;;;;;;5020774;28;20028;-91
2022/12/07 13:57:17;;;;;;;12.75;4.65;;;;;;;;;;5039634;28;20028;-92
2022/12/07 13:59:43;;;;;;;11.40;4.18;;;;;;;;;;5020615;28;20032;-92
2022/12/07 14:02:21;;;;;;;20.17;4.15;;;;;;;;;;5036977;28;20032;-93
2022/12/07 14:04:47;;;;;;;16.20;3.88;;;;;;;;;;5022899;28;20100;-90
2022/12/07 14:07:31;;;;;;;16.30;4.57;;;;;;;;;;5032845;28;20045;-93
2022/12/07 14:09:59;;;;;;;16.52;5.15;;;;;;;;;;5020242;28;20137;-92
2022/12/07 14:12:26;;;;;;;15.38;6.00;;;;;;;;;;5035475;28;20014;-94
2022/12/07 14:14:53;;;;;;;27.88;9.25;;;;;;;;;;5021910;28;20034;-94
2022/12/07 14:17:22;;;;;;;19.65;8.52;;;;;;;;;;5017503;28;20461;-94
2022/12/07 14:19:57;;;;;;;13.77;6.53;;;;;;;;;;5016823;28;20431;-93
2022/12/07 14:22:25;;;;;;;15.98;5.35;;;;;;;;;;5017324;28;20041;-95
2022/12/07 14:24:58;;;;;;;16.83;7.78;;;;;;;;;;5020976;28;20025;-94
2022/12/07 14:27:30;;;;;;;15.32;6.72;;;;;;;;;;5020802;28;20040;-93
2022/12/07 14:29:56;;;;;;;19.70;6.25;;;;;;;;;;5022243;28;20029;-92
2022/12/07 14:32:28;;;;;;;17.30;5.75;;;;;;;;;;5037624;28;20116;-95
2022/12/07 14:35:10;;;;;;;12.90;5.25;;;;;;;;;;5021875;28;20033;-94
2022/12/07 14:37:37;;;;;;;19.13;5.32;;;;;;;;;;5019519;28;20171;-92
2022/12/07 14:40:04;;;;;;;16.00;5.22;;;;;;;;;;5020675;28;20164;-94
2022/12/07 14:42:31;;;;;;;14.25;4.25;;;;;;;;;;5022877;28;20061;-94
2022/12/07 14:44:58;;;;;;;14.00;4.03;;;;;;;;;;5020207;28;20116;-93
2022/12/07 14:47:25;;;;;;;15.00;4.55;;;;;;;;;;5037505;28;20022;-93
2022/12/07 14:49:51;;;;;;;11.18;4.32;;;;;;;;;;5021139;28;20091;-94